createdAt,value
2022-11-05T00:00:51.742Z,94.63
2022-11-05T00:03:38.314Z,94.65
2022-11-05T00:06:28.018Z,94.48
2022-11-05T00:09:14.717Z,94.88
2022-11-05T00:12:01.385Z,95.00
2022-11-05T00:14:48.038Z,94.94
2022-11-05T00:17:15.978Z,94.84
2022-11-05T00:19:43.835Z,95.18
2022-11-05T00:22:30.525Z,95.04
2022-11-05T00:25:17.116Z,95.08
2022-11-05T00:27:53.118Z,95.32
2022-11-05T00:30:24.415Z,95.64
2022-11-05T00:32:53.321Z,96.88
2022-11-05T00:35:22.669Z,97.31
2022-11-05T00:37:54.035Z,96.55
2022-11-05T00:40:24.798Z,96.73
2022-11-05T00:43:11.663Z,98.38
2022-11-05T00:45:41.212Z,98.48
2022-11-05T00:48:27.902Z,98.28
2022-11-05T00:50:55.896Z,98.06
2022-11-05T00:53:23.872Z,97.89
2022-11-05T00:55:51.934Z,98.00
2022-11-05T00:58:22.424Z,99.16
2022-11-05T01:00:53.701Z,99.78
2022-11-05T01:03:27.565Z,99.76
2022-11-05T01:06:07.625Z,99.59
2022-11-05T01:08:35.832Z,99.76
2022-11-05T01:11:10.794Z,99.93
2022-11-05T01:13:39.783Z,99.43
2022-11-05T01:16:10.346Z,99.25
2022-11-05T01:18:39.075Z,98.55
2022-11-05T01:21:14.181Z,98.37
2022-11-05T01:23:44.971Z,98.37
2022-11-05T01:26:12.868Z,98.72
2022-11-05T01:28:40.949Z,98.59
2022-11-05T01:31:08.979Z,98.05
2022-11-05T01:33:37.033Z,97.58
2022-11-05T01:36:05.290Z,97.72
2022-11-05T01:38:33.171Z,97.61
2022-11-05T01:41:01.106Z,97.18
2022-11-05T01:43:52.364Z,97.16
2022-11-05T01:46:29.543Z,96.94
2022-11-05T01:49:06.988Z,97.04
2022-11-05T01:51:35.060Z,96.83
2022-11-05T01:54:10.292Z,96.76
2022-11-05T01:56:47.055Z,97.03
2022-11-05T01:59:30.476Z,96.72
2022-11-05T02:02:00.895Z,96.52
2022-11-05T02:04:38.893Z,96.71
2022-11-05T02:07:09.371Z,96.40
2022-11-05T02:09:54.762Z,96.27
2022-11-05T02:12:24.251Z,96.10
2022-11-05T02:14:52.139Z,96.09
2022-11-05T02:17:57.813Z,96.03
2022-11-05T02:20:55.145Z,96.08
2022-11-05T02:23:47.701Z,95.91
2022-11-05T02:27:03.591Z,96.01
2022-11-05T02:29:50.107Z,96.18
2022-11-05T02:32:30.960Z,95.77
2022-11-05T02:35:34.970Z,95.31
2022-11-05T02:38:10.578Z,95.45
2022-11-05T02:40:54.127Z,95.97
2022-11-05T02:43:46.619Z,96.05
2022-11-05T02:46:26.885Z,95.71
2022-11-05T02:49:19.108Z,95.81
2022-11-05T02:51:58.954Z,95.86
2022-11-05T02:54:45.855Z,95.68
2022-11-05T02:57:13.719Z,96.22
2022-11-05T02:59:41.571Z,96.21
2022-11-05T03:02:09.488Z,96.04
2022-11-05T03:04:37.619Z,96.07
2022-11-05T03:07:25.252Z,96.04
2022-11-05T03:10:08.603Z,96.16
2022-11-05T03:12:57.127Z,96.13
2022-11-05T03:16:00.672Z,95.95
2022-11-05T03:18:28.527Z,96.13
2022-11-05T03:21:27.720Z,95.94
2022-11-05T03:24:21.359Z,95.53
2022-11-05T03:26:56.602Z,95.37
2022-11-05T03:29:30.370Z,95.24
2022-11-05T03:32:02.473Z,95.06
2022-11-05T03:34:41.883Z,95.14
2022-11-05T03:37:11.059Z,94.76
2022-11-05T03:39:46.471Z,95.02
2022-11-05T03:42:18.811Z,94.78
2022-11-05T03:44:52.614Z,95.15
2022-11-05T03:47:26.482Z,94.41
2022-11-05T03:50:14.598Z,94.33
2022-11-05T03:53:07.642Z,94.48
2022-11-05T03:55:42.688Z,94.80
2022-11-05T03:58:13.247Z,94.34
2022-11-05T04:00:41.526Z,94.24
2022-11-05T04:03:09.684Z,94.33
2022-11-05T04:05:37.787Z,94.21
2022-11-05T04:08:24.502Z,94.13
2022-11-05T04:11:11.261Z,94.01
2022-11-05T04:13:39.131Z,93.71
2022-11-05T04:16:25.671Z,93.84
2022-11-05T04:18:53.605Z,93.74
2022-11-05T04:21:40.225Z,93.85
2022-11-05T04:24:08.356Z,93.51
2022-11-05T04:26:43.842Z,93.61
2022-11-05T04:29:30.438Z,93.61
2022-11-05T04:31:58.410Z,93.82
2022-11-05T04:34:26.291Z,93.61
2022-11-05T04:36:54.191Z,93.62
2022-11-05T04:39:22.082Z,93.81
2022-11-05T04:41:49.981Z,93.53
2022-11-05T04:44:17.911Z,94.03
2022-11-05T04:46:45.826Z,93.62
2022-11-05T04:49:13.717Z,93.69
2022-11-05T04:51:41.593Z,93.89
2022-11-05T04:54:09.472Z,93.78
2022-11-05T04:56:37.326Z,93.84
2022-11-05T04:59:05.231Z,93.99
2022-11-05T05:01:33.227Z,93.97
2022-11-05T05:04:01.439Z,94.12
2022-11-05T05:06:29.367Z,94.57
2022-11-05T05:08:57.304Z,94.65
2022-11-05T05:11:25.163Z,94.72
2022-11-05T05:13:53.008Z,94.79
2022-11-05T05:16:24.053Z,94.73
2022-11-05T05:18:53.132Z,94.99
2022-11-05T05:21:38.590Z,95.42
2022-11-05T05:24:18.783Z,96.02
2022-11-05T05:26:49.041Z,95.68
2022-11-05T05:29:18.069Z,95.86
2022-11-05T05:31:46.068Z,96.08
2022-11-05T05:34:14.917Z,96.37
2022-11-05T05:36:42.791Z,96.91
2022-11-05T05:39:13.511Z,96.90
2022-11-05T05:41:41.467Z,96.67
2022-11-05T05:44:09.395Z,97.15
2022-11-05T05:46:37.334Z,98.00
2022-11-05T05:49:11.076Z,98.12
2022-11-05T05:51:40.529Z,98.42
2022-11-05T05:54:08.607Z,97.80
2022-11-05T05:56:36.498Z,98.26
2022-11-05T05:59:05.611Z,98.12
2022-11-05T06:01:34.196Z,98.52
2022-11-05T06:04:02.599Z,99.50
2022-11-05T06:06:30.608Z,99.70
2022-11-05T06:08:58.531Z,99.88
2022-11-05T06:11:26.498Z,99.86
2022-11-05T06:13:54.624Z,99.97
2022-11-05T06:16:22.567Z,100.00
2022-11-05T06:18:50.511Z,100.00
2022-11-05T06:21:18.537Z,100.00
2022-11-05T06:23:48.429Z,100.00
2022-11-05T06:26:18.175Z,100.00
2022-11-05T06:28:46.810Z,100.00
2022-11-05T06:31:15.319Z,100.00
2022-11-05T06:33:43.210Z,100.00
2022-11-05T06:36:15.493Z,100.00
2022-11-05T06:38:43.870Z,100.00
2022-11-05T06:41:11.870Z,100.00
2022-11-05T06:43:39.981Z,100.00
2022-11-05T06:46:09.671Z,100.00
2022-11-05T06:48:38.144Z,100.00
2022-11-05T06:51:07.561Z,100.00
2022-11-05T06:53:35.987Z,100.00
2022-11-05T06:56:06.203Z,100.00
2022-11-05T06:58:34.420Z,100.00
2022-11-05T07:01:10.370Z,100.00
2022-11-05T07:03:39.523Z,100.00
2022-11-05T07:06:07.667Z,100.00
2022-11-05T07:08:37.679Z,100.00
2022-11-05T07:11:06.602Z,100.00
2022-11-05T07:13:34.550Z,100.00
2022-11-05T07:16:02.528Z,100.00
2022-11-05T07:18:30.396Z,100.00
2022-11-05T07:21:00.289Z,100.00
2022-11-05T07:23:28.299Z,100.00
2022-11-05T07:25:56.275Z,100.00
2022-11-05T07:28:24.135Z,100.00
2022-11-05T07:30:52.064Z,100.00
2022-11-05T07:33:20.020Z,100.00
2022-11-05T07:35:47.948Z,100.00
2022-11-05T07:38:15.896Z,100.00
2022-11-05T07:40:43.815Z,100.00
2022-11-05T07:43:11.912Z,100.00
2022-11-05T07:45:40.118Z,100.00
2022-11-05T07:48:08.396Z,100.00
2022-11-05T07:50:37.738Z,100.00
2022-11-05T07:53:07.834Z,100.00
2022-11-05T07:55:36.086Z,100.00
2022-11-05T07:58:04.597Z,100.00
2022-11-05T08:00:33.847Z,100.00
2022-11-05T08:03:15.301Z,100.00
2022-11-05T08:05:46.368Z,100.00
2022-11-05T08:08:19.383Z,100.00
2022-11-05T08:10:47.568Z,100.00
2022-11-05T08:13:16.248Z,100.00
2022-11-05T08:15:44.783Z,100.00
2022-11-05T08:18:15.361Z,100.00
2022-11-05T08:20:44.944Z,100.00
2022-11-05T08:23:13.318Z,100.00
2022-11-05T08:25:42.188Z,100.00
2022-11-05T08:28:13.059Z,100.00
2022-11-05T08:30:41.410Z,100.00
2022-11-05T08:33:13.279Z,100.00
2022-11-05T08:35:41.831Z,100.00
2022-11-05T08:38:13.893Z,100.00
2022-11-05T08:40:43.268Z,100.00
2022-11-05T08:43:13.803Z,100.00
2022-11-05T08:45:42.450Z,100.00
2022-11-05T08:48:15.054Z,100.00
2022-11-05T08:50:44.971Z,100.00
2022-11-05T08:53:14.310Z,100.00
2022-11-05T08:55:44.158Z,100.00
2022-11-05T08:58:17.783Z,100.00
2022-11-05T09:00:48.382Z,100.00
2022-11-05T09:03:17.242Z,100.00
2022-11-05T09:05:45.470Z,100.00
2022-11-05T09:08:16.597Z,100.00
2022-11-05T09:10:45.902Z,100.00
2022-11-05T09:13:18.836Z,100.00
2022-11-05T09:15:49.373Z,100.00
2022-11-05T09:18:18.886Z,100.00
2022-11-05T09:20:47.219Z,100.00
2022-11-05T09:23:15.849Z,100.00
2022-11-05T09:25:44.958Z,100.00
2022-11-05T09:28:17.206Z,100.00
2022-11-05T09:30:50.921Z,100.00
2022-11-05T09:33:22.116Z,100.00
2022-11-05T09:35:51.915Z,100.00
2022-11-05T09:38:19.832Z,100.00
2022-11-05T09:40:54.816Z,100.00
2022-11-05T09:43:31.764Z,100.00
2022-11-05T09:46:06.916Z,100.00
2022-11-05T09:48:35.906Z,100.00
2022-11-05T09:51:05.864Z,100.00
2022-11-05T09:53:37.058Z,100.00
2022-11-05T09:56:11.707Z,100.00
2022-11-05T09:58:45.435Z,100.00
2022-11-05T10:01:23.386Z,100.00
2022-11-05T10:03:56.151Z,100.00
2022-11-05T10:06:26.629Z,100.00
2022-11-05T10:09:03.870Z,100.00
2022-11-05T10:11:43.548Z,100.00
2022-11-05T10:14:21.696Z,100.00
2022-11-05T10:16:56.187Z,100.00
2022-11-05T10:19:25.523Z,100.00
2022-11-05T10:22:11.921Z,100.00
2022-11-05T10:24:47.260Z,100.00
2022-11-05T10:27:23.542Z,100.00
2022-11-05T10:29:51.820Z,100.00
2022-11-05T10:32:30.827Z,100.00
2022-11-05T10:35:02.764Z,100.00
2022-11-05T10:37:33.504Z,100.00
2022-11-05T10:40:30.442Z,100.00
2022-11-05T10:43:07.003Z,100.00
2022-11-05T10:45:52.866Z,100.00
2022-11-05T10:48:26.895Z,100.00
2022-11-05T10:50:55.203Z,100.00
2022-11-05T10:53:39.145Z,100.00
2022-11-05T10:56:30.951Z,100.00
2022-11-05T10:59:00.688Z,100.00
2022-11-05T11:01:30.296Z,100.00
2022-11-05T11:04:20.639Z,100.00
2022-11-05T11:06:54.359Z,100.00
2022-11-05T11:09:28.591Z,100.00
2022-11-05T11:12:07.614Z,100.00
2022-11-05T11:14:35.593Z,100.00
2022-11-05T11:17:26.997Z,100.00
2022-11-05T11:20:22.649Z,100.00
2022-11-05T11:23:01.368Z,100.00
2022-11-05T11:25:51.448Z,100.00
2022-11-05T11:28:36.005Z,100.00
2022-11-05T11:31:08.835Z,100.00
2022-11-05T11:33:39.715Z,100.00
2022-11-05T11:36:10.681Z,100.00
2022-11-05T11:38:40.324Z,100.00
2022-11-05T11:41:11.018Z,100.00
2022-11-05T11:43:41.597Z,100.00
2022-11-05T11:46:20.119Z,100.00
2022-11-05T11:48:49.500Z,100.00
2022-11-05T11:51:30.536Z,100.00
2022-11-05T11:54:00.223Z,100.00
2022-11-05T11:56:30.444Z,100.00
2022-11-05T11:59:08.927Z,100.00
2022-11-05T12:01:40.106Z,100.00
2022-11-05T12:04:40.634Z,100.00
2022-11-05T12:07:17.357Z,100.00
2022-11-05T12:10:15.005Z,100.00
2022-11-05T12:13:17.578Z,100.00
2022-11-05T12:16:06.303Z,100.00
2022-11-05T12:18:36.896Z,100.00
2022-11-05T12:21:41.108Z,100.00
2022-11-05T12:24:30.750Z,100.00
2022-11-05T12:27:20.052Z,100.00
2022-11-05T12:30:05.561Z,100.00
2022-11-05T12:33:07.747Z,100.00
2022-11-05T12:35:58.258Z,100.00
2022-11-05T12:38:33.382Z,100.00
2022-11-05T12:41:08.156Z,100.00
2022-11-05T12:43:39.452Z,100.00
2022-11-05T12:46:10.594Z,100.00
2022-11-05T12:48:59.781Z,100.00
2022-11-05T12:51:58.588Z,100.00
2022-11-05T12:54:47.837Z,100.00
2022-11-05T12:57:17.892Z,100.00
2022-11-05T12:59:51.529Z,100.00
2022-11-05T13:02:48.066Z,100.00
2022-11-05T13:05:40.398Z,100.00
2022-11-05T13:08:20.307Z,100.00
2022-11-05T13:10:55.184Z,100.00
2022-11-05T13:13:23.068Z,100.00
2022-11-05T13:15:55.407Z,100.00
2022-11-05T13:18:54.075Z,100.00
2022-11-05T13:21:25.963Z,100.00
2022-11-05T13:24:04.913Z,100.00
2022-11-05T13:26:45.150Z,100.00
2022-11-05T13:29:43.869Z,100.00
2022-11-05T13:32:39.496Z,100.00
2022-11-05T13:35:16.025Z,100.00
2022-11-05T13:38:07.430Z,100.00
2022-11-05T13:41:18.535Z,100.00
2022-11-05T13:44:31.285Z,100.00
2022-11-05T13:47:33.447Z,100.00
2022-11-05T13:50:16.819Z,100.00
2022-11-05T13:52:44.853Z,100.00
2022-11-05T13:55:36.120Z,100.00
2022-11-05T13:58:27.914Z,100.00
2022-11-05T14:01:27.145Z,100.00
2022-11-05T14:03:56.751Z,100.00
2022-11-05T14:06:36.585Z,100.00
2022-11-05T14:09:10.072Z,100.00
2022-11-05T14:11:41.837Z,100.00
2022-11-05T14:14:24.119Z,100.00
2022-11-05T14:16:54.804Z,100.00
2022-11-05T14:19:32.661Z,100.00
2022-11-05T14:22:32.441Z,100.00
2022-11-05T14:25:19.379Z,100.00
2022-11-05T14:27:49.683Z,100.00
2022-11-05T14:30:54.857Z,100.00
2022-11-05T14:33:25.689Z,100.00
2022-11-05T14:36:33.855Z,100.00
2022-11-05T14:39:21.880Z,100.00
2022-11-05T14:41:57.851Z,100.00
2022-11-05T14:44:27.125Z,100.00
2022-11-05T14:47:17.235Z,100.00
2022-11-05T14:49:53.198Z,100.00
2022-11-05T14:52:21.593Z,100.00
2022-11-05T14:54:56.303Z,100.00
2022-11-05T14:57:42.843Z,100.00
2022-11-05T15:00:29.452Z,100.00
2022-11-05T15:03:03.623Z,100.00
2022-11-05T15:05:33.299Z,100.00
2022-11-05T15:08:29.237Z,100.00
2022-11-05T15:11:07.376Z,100.00
2022-11-05T15:13:42.996Z,100.00
2022-11-05T15:16:20.937Z,100.00
2022-11-05T15:18:49.151Z,100.00
2022-11-05T15:21:20.185Z,100.00
2022-11-05T15:23:52.431Z,100.00
2022-11-05T15:26:23.671Z,100.00
2022-11-05T15:28:53.114Z,100.00
2022-11-05T15:31:41.267Z,100.00
2022-11-05T15:34:25.032Z,100.00
2022-11-05T15:36:56.443Z,100.00
2022-11-05T15:39:40.592Z,100.00
2022-11-05T15:42:16.714Z,100.00
2022-11-05T15:45:18.961Z,100.00
2022-11-05T15:47:46.903Z,100.00
2022-11-05T15:50:16.067Z,100.00
2022-11-05T15:52:54.767Z,100.00
2022-11-05T15:55:25.545Z,100.00
2022-11-05T15:58:01.093Z,100.00
2022-11-05T16:00:33.204Z,100.00
2022-11-05T16:03:06.178Z,100.00
2022-11-05T16:05:41.055Z,100.00
2022-11-05T16:08:19.179Z,100.00
2022-11-05T16:10:50.865Z,100.00
2022-11-05T16:13:34.229Z,100.00
2022-11-05T16:16:21.566Z,100.00
2022-11-05T16:18:49.484Z,100.00
2022-11-05T16:21:22.723Z,100.00
2022-11-05T16:24:00.719Z,100.00
2022-11-05T16:27:02.289Z,100.00
2022-11-05T16:29:29.358Z,100.00
2022-11-05T16:32:04.125Z,100.00
2022-11-05T16:34:42.903Z,100.00
2022-11-05T16:37:14.928Z,100.00
2022-11-05T16:39:42.863Z,100.00
2022-11-05T16:42:23.019Z,100.00
2022-11-05T16:44:52.612Z,100.00
2022-11-05T16:47:21.777Z,100.00
2022-11-05T16:49:50.107Z,100.00
2022-11-05T16:52:18.257Z,100.00
2022-11-05T16:54:46.137Z,100.00
2022-11-05T16:57:30.728Z,100.00
2022-11-05T17:00:00.479Z,100.00
2022-11-05T17:02:28.759Z,100.00
2022-11-05T17:04:56.807Z,100.00
2022-11-05T17:07:24.731Z,100.00
2022-11-05T17:09:52.686Z,100.00
2022-11-05T17:12:20.550Z,100.00
2022-11-05T17:14:48.460Z,100.00
2022-11-05T17:17:16.309Z,100.00
2022-11-05T17:19:44.620Z,100.00
2022-11-05T17:22:12.477Z,100.00
2022-11-05T17:24:40.370Z,100.00
2022-11-05T17:27:08.303Z,100.00
2022-11-05T17:29:36.226Z,100.00
2022-11-05T17:32:06.414Z,100.00
2022-11-05T17:34:34.295Z,100.00
2022-11-05T17:37:02.288Z,100.00
2022-11-05T17:39:31.813Z,100.00
2022-11-05T17:42:00.224Z,100.00
2022-11-05T17:44:28.204Z,100.00
2022-11-05T17:46:56.131Z,100.00
2022-11-05T17:49:24.063Z,100.00
2022-11-05T17:51:52.142Z,100.00
2022-11-05T17:54:20.012Z,100.00
2022-11-05T17:56:47.935Z,100.00
2022-11-05T17:59:15.892Z,100.00
2022-11-05T18:01:44.988Z,100.00
2022-11-05T18:04:13.411Z,100.00
2022-11-05T18:06:41.847Z,100.00
2022-11-05T18:09:11.029Z,100.00
2022-11-05T18:11:40.092Z,100.00
2022-11-05T18:14:08.405Z,100.00
2022-11-05T18:16:36.741Z,100.00
2022-11-05T18:19:05.545Z,100.00
2022-11-05T18:21:33.510Z,100.00
2022-11-05T18:24:06.144Z,100.00
2022-11-05T18:26:34.908Z,100.00
2022-11-05T18:29:05.047Z,100.00
2022-11-05T18:31:33.126Z,100.00
2022-11-05T18:34:01.336Z,100.00
2022-11-05T18:36:31.224Z,100.00
2022-11-05T18:39:00.603Z,100.00
2022-11-05T18:41:28.763Z,100.00
2022-11-05T18:44:01.193Z,100.00
2022-11-05T18:46:56.539Z,100.00
2022-11-05T18:49:18.492Z,100.00
2022-11-05T18:51:46.425Z,100.00
2022-11-05T18:54:14.609Z,100.00
2022-11-05T18:56:45.671Z,100.00
2022-11-05T19:02:05.964Z,100.00
2022-11-05T19:04:36.443Z,100.00
2022-11-05T19:07:05.893Z,100.00
2022-11-05T19:09:35.909Z,100.00
2022-11-05T19:12:05.775Z,100.00
2022-11-05T19:14:34.962Z,100.00
2022-11-05T19:17:03.593Z,100.00
2022-11-05T19:19:31.787Z,100.00
2022-11-05T19:21:59.934Z,100.00
2022-11-05T19:24:28.269Z,100.00
2022-11-05T19:26:56.375Z,100.00
2022-11-05T19:29:24.367Z,100.00
2022-11-05T19:31:52.326Z,100.00
2022-11-05T19:34:20.681Z,100.00
2022-11-05T19:36:48.756Z,100.00
2022-11-05T19:39:16.897Z,100.00
2022-11-05T19:41:44.820Z,100.00
2022-11-05T19:44:13.759Z,100.00
2022-11-05T19:46:41.810Z,100.00
2022-11-05T19:49:11.842Z,100.00
2022-11-05T19:51:39.786Z,100.00
2022-11-05T19:54:07.807Z,100.00
2022-11-05T19:56:36.946Z,100.00
2022-11-05T19:59:09.129Z,100.00
2022-11-05T20:01:37.585Z,100.00
2022-11-05T20:04:06.145Z,100.00
2022-11-05T20:06:40.695Z,100.00
2022-11-05T20:09:27.420Z,100.00
2022-11-05T20:11:56.842Z,100.00
2022-11-05T20:14:26.277Z,100.00
2022-11-05T20:16:54.715Z,100.00
2022-11-05T20:19:23.500Z,100.00
2022-11-05T20:21:51.722Z,100.00
2022-11-05T20:24:24.873Z,100.00
2022-11-05T20:26:55.320Z,100.00
2022-11-05T20:29:27.850Z,100.00
2022-11-05T20:31:58.915Z,100.00
2022-11-05T20:34:29.543Z,100.00
2022-11-05T20:36:57.765Z,100.00
2022-11-05T20:39:26.726Z,100.00
2022-11-05T20:41:56.706Z,100.00
2022-11-05T20:44:24.951Z,100.00
2022-11-05T20:46:52.941Z,100.00
2022-11-05T20:49:25.407Z,100.00
2022-11-05T20:51:54.557Z,100.00
2022-11-05T20:54:22.722Z,100.00
2022-11-05T20:56:50.756Z,100.00
2022-11-05T20:59:19.621Z,100.00
2022-11-05T21:01:47.987Z,100.00
2022-11-05T21:04:16.081Z,100.00
2022-11-05T21:06:44.036Z,100.00
2022-11-05T21:09:13.023Z,100.00
2022-11-05T21:12:00.143Z,100.00
2022-11-05T21:14:28.375Z,100.00
2022-11-05T21:16:56.388Z,100.00
2022-11-05T21:19:24.413Z,100.00
2022-11-05T21:21:52.590Z,100.00
2022-11-05T21:24:20.840Z,100.00
2022-11-05T21:26:50.159Z,100.00
2022-11-05T21:29:19.665Z,100.00
2022-11-05T21:31:47.745Z,100.00
2022-11-05T21:34:17.409Z,100.00
2022-11-05T21:36:47.180Z,100.00
2022-11-05T21:39:15.254Z,100.00
2022-11-05T21:41:43.201Z,100.00
2022-11-05T21:44:11.645Z,100.00
2022-11-05T21:46:39.593Z,100.00
2022-11-05T21:49:08.053Z,100.00
2022-11-05T21:51:55.008Z,100.00
2022-11-05T21:54:41.703Z,100.00
2022-11-05T21:57:33.221Z,100.00
2022-11-05T22:00:03.884Z,100.00
2022-11-05T22:02:32.332Z,100.00
2022-11-05T22:05:02.354Z,100.00
2022-11-05T22:07:36.530Z,100.00
2022-11-05T22:10:14.694Z,100.00
2022-11-05T22:12:45.249Z,100.00
2022-11-05T22:15:14.358Z,100.00
2022-11-05T22:17:46.479Z,100.00
2022-11-05T22:20:16.105Z,100.00
2022-11-05T22:22:44.857Z,100.00
2022-11-05T22:25:13.556Z,100.00
2022-11-05T22:27:43.886Z,100.00
2022-11-05T22:30:13.470Z,100.00
2022-11-05T22:32:41.519Z,100.00
2022-11-05T22:35:09.867Z,100.00
2022-11-05T22:37:37.909Z,100.00
2022-11-05T22:40:06.389Z,100.00
2022-11-05T22:42:34.436Z,100.00
2022-11-05T22:45:02.632Z,100.00
2022-11-05T22:47:30.547Z,100.00
2022-11-05T22:49:58.549Z,100.00
2022-11-05T22:52:26.493Z,100.00
2022-11-05T22:54:54.443Z,100.00
2022-11-05T22:57:22.335Z,100.00
2022-11-05T22:59:50.534Z,100.00
2022-11-05T23:02:18.632Z,100.00
2022-11-05T23:04:46.691Z,100.00
2022-11-05T23:07:33.094Z,100.00
2022-11-05T23:10:19.979Z,100.00
2022-11-05T23:12:47.915Z,100.00
2022-11-05T23:15:34.692Z,100.00
2022-11-05T23:18:21.234Z,100.00
2022-11-05T23:21:07.618Z,100.00
2022-11-05T23:23:54.403Z,100.00
2022-11-05T23:26:41.010Z,100.00
2022-11-05T23:29:09.110Z,100.00
2022-11-05T23:31:55.788Z,100.00
2022-11-05T23:34:23.689Z,100.00
2022-11-05T23:37:10.292Z,100.00
2022-11-05T23:39:42.435Z,100.00
2022-11-05T23:42:30.366Z,100.00
2022-11-05T23:45:16.993Z,100.00
2022-11-05T23:48:03.961Z,100.00
2022-11-05T23:50:37.130Z,100.00
2022-11-05T23:53:08.271Z,100.00
2022-11-05T23:55:37.091Z,100.00
2022-11-05T23:58:05.677Z,100.00
